logo dgac
Miércoles 19 de Junio del 2019
Buscar por aerodromo o helipuerto
Ingrese nombre de aeródromo, localidad o designador OACI:
METAR del 19-06-2019 a las 07:00 UTC
METAR SCIE 190700Z 16009KT CAVOK 07/05 Q1023
Viento: dirección 160 grados, velocidad 9 nudos
Visibilidad: 10 km o más,
    sin nubes bajo los 5.000 pies o bajo del MSA (Mínimo de Seguridad del Aeródromo),
    sin cumulonimbus, y sin fenómenos de tiempo significativo en el aeródromo o alrededores
Temperatura: 7 °C
Rocío: 5 °C
Humedad_relativa: 87%
Presión: 1023 hPa
METAR del 19-06-2019 a las 06:00 UTC
METAR SCIE 190600Z 17007KT CAVOK 08/06 Q1024
Viento: dirección 170 grados, velocidad 7 nudos
Visibilidad: 10 km o más,
    sin nubes bajo los 5.000 pies o bajo del MSA (Mínimo de Seguridad del Aeródromo),
    sin cumulonimbus, y sin fenómenos de tiempo significativo en el aeródromo o alrededores
Temperatura: 8 °C
Rocío: 6 °C
Humedad_relativa: 87%
Presión: 1024 hPa
METAR del 19-06-2019 a las 05:00 UTC
METAR SCIE 190500Z 16006KT CAVOK 06/05 Q1024
Viento: dirección 160 grados, velocidad 6 nudos
Visibilidad: 10 km o más,
    sin nubes bajo los 5.000 pies o bajo del MSA (Mínimo de Seguridad del Aeródromo),
    sin cumulonimbus, y sin fenómenos de tiempo significativo en el aeródromo o alrededores
Temperatura: 6 °C
Rocío: 5 °C
Humedad_relativa: 93%
Presión: 1024 hPa
METAR del 19-06-2019 a las 04:00 UTC
METAR SCIE 190400Z 17006KT CAVOK 07/06 Q1024
Viento: dirección 170 grados, velocidad 6 nudos
Visibilidad: 10 km o más,
    sin nubes bajo los 5.000 pies o bajo del MSA (Mínimo de Seguridad del Aeródromo),
    sin cumulonimbus, y sin fenómenos de tiempo significativo en el aeródromo o alrededores
Temperatura: 7 °C
Rocío: 6 °C
Humedad_relativa: 93%
Presión: 1024 hPa
METAR del 19-06-2019 a las 03:00 UTC
METAR SCIE 190300Z 17004KT CAVOK 07/06 Q1026
Viento: dirección 170 grados, velocidad 4 nudos
Visibilidad: 10 km o más,
    sin nubes bajo los 5.000 pies o bajo del MSA (Mínimo de Seguridad del Aeródromo),
    sin cumulonimbus, y sin fenómenos de tiempo significativo en el aeródromo o alrededores
Temperatura: 7 °C
Rocío: 6 °C
Humedad_relativa: 93%
Presión: 1026 hPa
METAR del 19-06-2019 a las 02:00 UTC
METAR SCIE 190200Z 19005KT 170V230 CAVOK 08/07 Q1025
Viento: dirección 190 grados, velocidad 5 nudos
Viento con dirección variable entre 170 y 230 grados
Visibilidad: 10 km o más,
    sin nubes bajo los 5.000 pies o bajo del MSA (Mínimo de Seguridad del Aeródromo),
    sin cumulonimbus, y sin fenómenos de tiempo significativo en el aeródromo o alrededores
Temperatura: 8 °C
Rocío: 7 °C
Humedad_relativa: 93%
Presión: 1025 hPa
METAR del 19-06-2019 a las 02:00 UTC
METAR SCIE 190200Z 19005KT 170V230 CAVOK 08/07 Q1025
Viento: dirección 190 grados, velocidad 5 nudos
Viento con dirección variable entre 170 y 230 grados
Visibilidad: 10 km o más,
    sin nubes bajo los 5.000 pies o bajo del MSA (Mínimo de Seguridad del Aeródromo),
    sin cumulonimbus, y sin fenómenos de tiempo significativo en el aeródromo o alrededores
Temperatura: 8 °C
Rocío: 7 °C
Humedad_relativa: 93%
Presión: 1025 hPa
METAR del 19-06-2019 a las 01:00 UTC
METAR SCIE 190100Z 13004KT CAVOK 08/07 Q1025
Viento: dirección 130 grados, velocidad 4 nudos
Visibilidad: 10 km o más,
    sin nubes bajo los 5.000 pies o bajo del MSA (Mínimo de Seguridad del Aeródromo),
    sin cumulonimbus, y sin fenómenos de tiempo significativo en el aeródromo o alrededores
Temperatura: 8 °C
Rocío: 7 °C
Humedad_relativa: 93%
Presión: 1025 hPa
METAR del 19-06-2019 a las 00:00 UTC
METAR SCIE 190000Z 17004KT 7000 NSC 09/07 Q1025
Viento: dirección 170 grados, velocidad 4 nudos
Visibilidad: 7000 metros
Sin nubes bajo los 5000 pies o bajo del MSA (Mínimo de Seguridad del Aeródromo)
Temperatura: 9 °C
Rocío: 7 °C
Humedad_relativa: 87%
Presión: 1025 hPa
METAR del 18-06-2019 a las 23:00 UTC
METAR SCIE 182300Z 15006KT 8000 NSC 10/07 Q1025
Viento: dirección 150 grados, velocidad 6 nudos
Visibilidad: 8000 metros
Sin nubes bajo los 5000 pies o bajo del MSA (Mínimo de Seguridad del Aeródromo)
Temperatura: 10 °C
Rocío: 7 °C
Humedad_relativa: 82%
Presión: 1025 hPa